createdAt,value
2022-10-05T00:01:30.050Z,24
2022-10-05T00:04:01.230Z,28
2022-10-05T00:06:31.872Z,28
2022-10-05T00:09:02.518Z,28
2022-10-05T00:11:32.021Z,20
2022-10-05T00:14:03.021Z,20
2022-10-05T00:16:35.017Z,17
2022-10-05T00:19:06.015Z,17
2022-10-05T00:21:36.942Z,16
2022-10-05T00:24:08.409Z,16
2022-10-05T00:26:39.373Z,16
2022-10-05T00:29:10.664Z,20
2022-10-05T00:31:44.456Z,19
2022-10-05T00:34:15.665Z,20
2022-10-05T00:36:48.394Z,20
2022-10-05T00:39:20.227Z,20
2022-10-05T00:41:50.936Z,20
2022-10-05T00:44:22.414Z,24
2022-10-05T00:46:53.385Z,20
2022-10-05T00:49:25.754Z,20
2022-10-05T00:51:56.913Z,16
2022-10-05T00:54:28.453Z,16
2022-10-05T00:56:59.466Z,20
2022-10-05T00:59:30.330Z,20
2022-10-05T01:02:01.798Z,16
2022-10-05T01:04:33.205Z,16
2022-10-05T01:07:05.262Z,13
2022-10-05T01:09:38.268Z,19
2022-10-05T01:12:10.707Z,16
2022-10-05T01:14:42.841Z,13
2022-10-05T01:17:14.028Z,16
2022-10-05T01:19:45.323Z,16
2022-10-05T01:22:16.318Z,16
2022-10-05T01:24:47.479Z,16
2022-10-05T01:27:18.583Z,16
2022-10-05T01:29:51.305Z,16
2022-10-05T01:32:22.675Z,16
2022-10-05T01:34:56.020Z,16
2022-10-05T01:37:26.986Z,16
2022-10-05T01:39:57.963Z,12
2022-10-05T01:42:29.320Z,16
2022-10-05T01:45:05.768Z,16
2022-10-05T01:47:36.542Z,16
2022-10-05T01:50:08.102Z,16
2022-10-05T01:52:39.231Z,16
2022-10-05T01:55:09.772Z,16
2022-10-05T01:57:41.653Z,16
2022-10-05T02:00:13.269Z,12
2022-10-05T02:02:44.210Z,16
2022-10-05T02:05:15.176Z,16
2022-10-05T02:07:46.384Z,12
2022-10-05T02:10:17.370Z,12
2022-10-05T02:12:48.939Z,15
2022-10-05T02:15:18.914Z,12
2022-10-05T02:17:50.259Z,12
2022-10-05T02:20:22.179Z,12
2022-10-05T02:22:53.395Z,15
2022-10-05T02:25:24.374Z,16
2022-10-05T02:27:56.167Z,15
2022-10-05T02:30:26.786Z,14
2022-10-05T02:32:57.925Z,12
2022-10-05T02:35:28.655Z,15
2022-10-05T02:37:59.380Z,11
2022-10-05T02:40:29.426Z,12
2022-10-05T02:43:00.614Z,14
2022-10-05T02:45:32.172Z,16
2022-10-05T02:48:01.666Z,12
2022-10-05T02:50:33.802Z,12
2022-10-05T02:53:05.231Z,16
2022-10-05T02:55:35.932Z,15
2022-10-05T02:58:07.164Z,14
2022-10-05T03:00:38.787Z,16
2022-10-05T03:03:09.948Z,12
2022-10-05T03:05:40.857Z,12
2022-10-05T03:08:11.741Z,12
2022-10-05T03:10:42.819Z,12
2022-10-05T03:13:13.807Z,12
2022-10-05T03:15:44.862Z,8
2022-10-05T03:18:14.370Z,12
2022-10-05T03:20:44.195Z,12
2022-10-05T03:23:14.608Z,15
2022-10-05T03:25:45.440Z,12
2022-10-05T03:28:17.495Z,12
2022-10-05T03:30:48.836Z,12
2022-10-05T03:33:20.716Z,12
2022-10-05T03:35:52.182Z,12
2022-10-05T03:38:23.842Z,12
2022-10-05T03:40:54.439Z,12
2022-10-05T03:43:25.609Z,8
2022-10-05T03:45:57.915Z,8
2022-10-05T03:48:29.612Z,10
2022-10-05T03:51:01.035Z,12
2022-10-05T03:53:32.211Z,12
2022-10-05T03:56:03.676Z,12
2022-10-05T03:58:34.732Z,12
2022-10-05T04:01:05.920Z,12
2022-10-05T04:03:36.742Z,12
2022-10-05T04:06:08.339Z,12
2022-10-05T04:08:38.946Z,12
2022-10-05T04:11:10.289Z,12
2022-10-05T04:13:42.010Z,8
2022-10-05T04:16:13.077Z,11
2022-10-05T04:18:44.094Z,12
2022-10-05T04:21:18.988Z,16
2022-10-05T04:23:47.784Z,12
2022-10-05T04:26:18.957Z,16
2022-10-05T04:28:48.649Z,16
2022-10-05T04:31:21.423Z,16
2022-10-05T04:33:52.003Z,16
2022-10-05T04:36:24.772Z,20
2022-10-05T04:38:56.013Z,20
2022-10-05T04:41:28.262Z,18
2022-10-05T04:43:59.414Z,20
2022-10-05T04:46:28.749Z,23
2022-10-05T04:49:01.758Z,20
2022-10-05T04:51:33.792Z,20
2022-10-05T04:54:05.807Z,20
2022-10-05T04:56:36.612Z,20
2022-10-05T04:59:07.461Z,17
2022-10-05T05:01:39.590Z,16
2022-10-05T05:04:11.509Z,16
2022-10-05T05:06:43.379Z,19
2022-10-05T05:09:13.968Z,20
2022-10-05T05:11:49.150Z,16
2022-10-05T05:14:21.218Z,16
2022-10-05T05:16:52.410Z,16
2022-10-05T05:19:23.403Z,16
2022-10-05T05:21:54.757Z,13
2022-10-05T05:24:25.370Z,16
2022-10-05T05:26:56.177Z,16
2022-10-05T05:29:28.314Z,16
2022-10-05T05:31:59.412Z,19
2022-10-05T05:34:30.136Z,20
2022-10-05T05:37:01.295Z,20
2022-10-05T05:39:32.763Z,16
2022-10-05T05:42:04.472Z,16
2022-10-05T05:44:38.691Z,19
2022-10-05T05:47:07.765Z,16
2022-10-05T05:49:38.619Z,20
2022-10-05T05:52:09.607Z,20
2022-10-05T05:54:40.408Z,20
2022-10-05T05:57:09.205Z,16
2022-10-05T05:59:39.995Z,20
2022-10-05T06:02:10.575Z,20
2022-10-05T06:04:41.065Z,20
2022-10-05T06:07:10.074Z,21
2022-10-05T06:09:41.398Z,20
2022-10-05T06:12:13.068Z,20
2022-10-05T06:14:44.439Z,20
2022-10-05T06:17:15.838Z,16
2022-10-05T06:19:49.580Z,23
2022-10-05T06:22:20.676Z,23
2022-10-05T06:24:51.911Z,24
2022-10-05T06:27:24.307Z,24
2022-10-05T06:29:55.240Z,24
2022-10-05T06:32:25.521Z,24
2022-10-05T06:34:56.948Z,24
2022-10-05T06:37:30.315Z,24
2022-10-05T06:40:01.434Z,24
2022-10-05T06:42:31.858Z,24
2022-10-05T06:45:04.270Z,20
2022-10-05T06:47:35.749Z,20
2022-10-05T06:50:06.884Z,20
2022-10-05T06:52:38.107Z,24
2022-10-05T06:55:13.985Z,24
2022-10-05T06:57:40.491Z,20
2022-10-05T07:00:12.288Z,20
2022-10-05T07:02:44.385Z,20
2022-10-05T07:05:16.976Z,24
2022-10-05T07:07:47.428Z,24
2022-10-05T07:10:18.265Z,24
2022-10-05T07:12:49.743Z,24
2022-10-05T07:15:20.682Z,24
2022-10-05T07:17:52.077Z,25
2022-10-05T07:20:23.070Z,23
2022-10-05T07:22:53.241Z,24
2022-10-05T07:25:25.025Z,24
2022-10-05T07:27:55.967Z,28
2022-10-05T07:30:26.947Z,24
2022-10-05T07:32:58.171Z,24
2022-10-05T07:35:27.261Z,24
2022-10-05T07:37:58.176Z,21
2022-10-05T07:40:28.979Z,24
2022-10-05T07:42:59.515Z,24
2022-10-05T07:45:30.267Z,28
2022-10-05T07:48:03.033Z,20
2022-10-05T07:50:33.775Z,24
2022-10-05T07:53:04.793Z,24
2022-10-05T07:55:36.971Z,24
2022-10-05T07:58:07.409Z,21
2022-10-05T08:00:37.881Z,24
2022-10-05T08:03:08.579Z,24
2022-10-05T08:05:39.248Z,24
2022-10-05T08:08:10.181Z,20
2022-10-05T08:10:41.823Z,19
2022-10-05T08:13:13.111Z,23
2022-10-05T08:15:44.080Z,20
2022-10-05T08:18:14.998Z,20
2022-10-05T08:20:46.405Z,16
2022-10-05T08:23:19.641Z,19
2022-10-05T08:25:51.081Z,16
2022-10-05T08:28:21.899Z,16
2022-10-05T08:30:52.980Z,20
2022-10-05T08:33:26.041Z,19
2022-10-05T08:35:58.336Z,20
2022-10-05T08:38:30.189Z,20
2022-10-05T08:41:00.762Z,19
2022-10-05T08:43:35.253Z,20
2022-10-05T08:46:03.346Z,20
2022-10-05T08:48:35.932Z,16
2022-10-05T08:51:06.640Z,20
2022-10-05T08:53:37.403Z,20
2022-10-05T08:56:08.289Z,21
2022-10-05T08:58:39.041Z,20
2022-10-05T09:01:09.845Z,20
2022-10-05T09:03:38.994Z,20
2022-10-05T09:06:09.596Z,17
2022-10-05T09:08:39.804Z,20
2022-10-05T09:11:13.070Z,17
2022-10-05T09:13:44.150Z,20
2022-10-05T09:16:14.562Z,16
2022-10-05T09:18:45.102Z,16
2022-10-05T09:21:17.068Z,16
2022-10-05T09:23:47.960Z,20
2022-10-05T09:26:19.388Z,12
2022-10-05T09:28:51.018Z,16
2022-10-05T09:31:23.035Z,17
2022-10-05T09:33:54.231Z,16
2022-10-05T09:36:24.761Z,12
2022-10-05T09:38:55.471Z,13
2022-10-05T09:41:26.219Z,16
2022-10-05T09:43:59.072Z,16
2022-10-05T09:46:30.674Z,16
2022-10-05T09:49:01.648Z,13
2022-10-05T09:51:32.330Z,16
2022-10-05T09:54:04.952Z,12
2022-10-05T09:56:38.043Z,12
2022-10-05T09:59:08.841Z,16
2022-10-05T10:01:41.363Z,12
2022-10-05T10:04:13.091Z,16
2022-10-05T10:06:43.664Z,12
2022-10-05T10:09:14.938Z,10
2022-10-05T10:11:46.277Z,11
2022-10-05T10:14:14.872Z,8
2022-10-05T10:16:46.437Z,8
2022-10-05T10:19:17.263Z,8
2022-10-05T10:21:48.886Z,12
2022-10-05T10:24:19.493Z,12
2022-10-05T10:26:52.064Z,8
2022-10-05T10:29:23.166Z,12
2022-10-05T10:31:53.957Z,11
2022-10-05T10:34:24.530Z,8
2022-10-05T10:36:55.637Z,8
2022-10-05T10:39:26.462Z,4
2022-10-05T10:41:58.227Z,8
2022-10-05T10:44:28.004Z,8
2022-10-05T10:46:58.728Z,8
2022-10-05T10:49:29.412Z,8
2022-10-05T10:52:00.557Z,8
2022-10-05T10:54:31.062Z,8
2022-10-05T10:57:02.365Z,4
2022-10-05T10:59:33.193Z,9
2022-10-05T11:02:04.659Z,8
2022-10-05T11:04:37.440Z,7
2022-10-05T11:07:07.995Z,8
2022-10-05T11:09:38.822Z,8
2022-10-05T11:12:09.972Z,8
2022-10-05T11:14:41.811Z,8
2022-10-05T11:17:12.066Z,8
2022-10-05T11:19:59.488Z,12
2022-10-05T11:22:14.283Z,8
2022-10-05T11:24:44.896Z,8
2022-10-05T11:27:16.035Z,8
2022-10-05T11:29:46.365Z,8
2022-10-05T11:32:16.586Z,8
2022-10-05T11:34:47.471Z,8
2022-10-05T11:37:19.937Z,8
2022-10-05T11:39:51.268Z,8
2022-10-05T11:42:22.543Z,8
2022-10-05T11:44:53.415Z,8
2022-10-05T11:47:24.990Z,8
2022-10-05T11:49:55.819Z,8
2022-10-05T11:52:26.920Z,8
2022-10-05T11:55:10.164Z,15
2022-10-05T11:57:29.634Z,8
2022-10-05T11:59:58.848Z,8
2022-10-05T12:02:29.610Z,8
2022-10-05T12:05:00.629Z,8
2022-10-05T12:07:31.805Z,4
2022-10-05T12:10:02.791Z,8
2022-10-05T12:12:33.401Z,22
2022-10-05T12:15:03.904Z,11
2022-10-05T12:17:35.297Z,8
2022-10-05T12:20:06.161Z,8
2022-10-05T12:22:38.215Z,8
2022-10-05T12:25:12.892Z,8
2022-10-05T12:27:44.390Z,4
2022-10-05T12:30:15.327Z,4
2022-10-05T12:32:46.525Z,8
2022-10-05T12:35:29.918Z,8
2022-10-05T12:37:49.948Z,4
2022-10-05T12:40:21.012Z,8
2022-10-05T12:42:52.338Z,8
2022-10-05T12:45:28.788Z,6
2022-10-05T12:47:59.377Z,8
2022-10-05T12:50:30.263Z,4
2022-10-05T12:53:01.351Z,4
2022-10-05T12:55:33.415Z,8
2022-10-05T12:58:04.356Z,8
2022-10-05T13:00:35.352Z,9
2022-10-05T13:03:06.557Z,8
2022-10-05T13:05:37.631Z,8
2022-10-05T13:08:09.437Z,8
2022-10-05T13:10:40.216Z,8
2022-10-05T13:13:11.455Z,8
2022-10-05T13:15:42.262Z,8
2022-10-05T13:18:14.191Z,6
2022-10-05T13:20:45.317Z,5
2022-10-05T13:23:16.233Z,8
2022-10-05T13:25:47.758Z,16
2022-10-05T13:28:20.149Z,36
2022-10-05T13:30:51.893Z,28
2022-10-05T13:33:23.267Z,8
2022-10-05T13:35:54.481Z,12
2022-10-05T13:38:25.385Z,8
2022-10-05T13:40:56.361Z,9
2022-10-05T13:43:26.979Z,8
2022-10-05T13:45:58.271Z,16
2022-10-05T13:48:29.533Z,11
2022-10-05T13:51:00.934Z,12
2022-10-05T13:53:31.927Z,10
2022-10-05T13:56:02.889Z,8
2022-10-05T13:58:33.669Z,8
2022-10-05T14:01:04.497Z,12
2022-10-05T14:03:36.222Z,12
2022-10-05T14:06:07.400Z,20
2022-10-05T14:08:38.910Z,12
2022-10-05T14:11:11.429Z,12
2022-10-05T14:13:44.614Z,11
2022-10-05T14:16:17.768Z,12
2022-10-05T14:18:50.080Z,12
2022-10-05T14:21:21.487Z,11
2022-10-05T14:23:51.214Z,12
2022-10-05T14:26:23.271Z,8
2022-10-05T14:28:54.698Z,8
2022-10-05T14:31:26.750Z,8
2022-10-05T14:33:58.584Z,8
2022-10-05T14:36:29.919Z,12
2022-10-05T14:39:01.896Z,8
2022-10-05T14:41:33.029Z,8
2022-10-05T14:44:07.092Z,8
2022-10-05T14:46:40.107Z,8
2022-10-05T14:49:11.426Z,16
2022-10-05T14:51:43.129Z,12
2022-10-05T14:54:14.974Z,11
2022-10-05T14:56:49.030Z,12
2022-10-05T14:59:21.449Z,15
2022-10-05T15:01:52.610Z,28
2022-10-05T15:04:24.131Z,24
2022-10-05T15:06:55.843Z,8
2022-10-05T15:09:25.231Z,8
2022-10-05T15:11:56.790Z,8
2022-10-05T15:14:28.877Z,8
2022-10-05T15:17:00.825Z,9
2022-10-05T15:19:32.327Z,10
2022-10-05T15:22:03.956Z,8
2022-10-05T15:24:38.955Z,12
2022-10-05T15:27:07.098Z,12
2022-10-05T15:29:38.705Z,12
2022-10-05T15:32:09.641Z,8
2022-10-05T15:34:41.023Z,12
2022-10-05T15:37:13.322Z,12
2022-10-05T15:39:44.949Z,8
2022-10-05T15:42:16.753Z,12
2022-10-05T15:44:48.706Z,12
2022-10-05T15:47:21.196Z,16
2022-10-05T15:49:52.714Z,12
2022-10-05T15:52:23.858Z,12
2022-10-05T15:54:56.131Z,11
2022-10-05T15:57:28.001Z,12
2022-10-05T16:00:00.896Z,12
2022-10-05T16:02:31.067Z,12
2022-10-05T16:05:04.722Z,12
2022-10-05T16:07:33.774Z,12
2022-10-05T16:10:06.745Z,16
2022-10-05T16:12:37.991Z,16
2022-10-05T16:15:09.741Z,16
2022-10-05T16:17:41.383Z,16
2022-10-05T16:20:13.245Z,16
2022-10-05T16:22:46.949Z,16
2022-10-05T16:25:17.121Z,16
2022-10-05T16:27:48.245Z,16
2022-10-05T16:30:19.537Z,17
2022-10-05T16:32:52.446Z,15
2022-10-05T16:35:23.855Z,17
2022-10-05T16:37:55.541Z,20
2022-10-05T16:40:26.795Z,17
2022-10-05T16:42:58.913Z,18
2022-10-05T16:45:30.008Z,20
2022-10-05T16:48:01.885Z,20
2022-10-05T16:50:32.969Z,18
2022-10-05T16:53:06.091Z,18
2022-10-05T16:55:37.441Z,16
2022-10-05T16:58:09.085Z,20
2022-10-05T17:00:40.643Z,24
2022-10-05T17:03:12.129Z,24
2022-10-05T17:05:43.465Z,24
2022-10-05T17:08:15.776Z,28
2022-10-05T17:10:47.651Z,28
2022-10-05T17:13:19.917Z,28
2022-10-05T17:15:50.108Z,28
2022-10-05T17:18:21.821Z,24
2022-10-05T17:20:52.219Z,30
2022-10-05T17:23:23.236Z,28
2022-10-05T17:25:56.649Z,32
2022-10-05T17:28:29.372Z,28
2022-10-05T17:31:00.766Z,32
2022-10-05T17:33:33.198Z,33
2022-10-05T17:36:05.851Z,28
2022-10-05T17:38:37.120Z,32
2022-10-05T17:41:09.161Z,32
2022-10-05T17:43:40.681Z,28
2022-10-05T17:46:13.300Z,29
2022-10-05T17:48:45.489Z,28
2022-10-05T17:51:16.934Z,30
2022-10-05T17:53:47.844Z,28
2022-10-05T17:56:20.059Z,28
2022-10-05T17:58:52.145Z,28
2022-10-05T18:01:22.308Z,26
2022-10-05T18:03:54.887Z,28
2022-10-05T18:06:28.317Z,28
2022-10-05T18:09:00.924Z,24
2022-10-05T18:11:32.286Z,28
2022-10-05T18:14:02.087Z,28
2022-10-05T18:16:34.110Z,28
2022-10-05T18:19:05.821Z,32
2022-10-05T18:21:37.287Z,33
2022-10-05T18:24:09.690Z,32
2022-10-05T18:26:40.449Z,33
2022-10-05T18:29:12.646Z,32
2022-10-05T18:31:46.463Z,32
2022-10-05T18:34:18.707Z,28
2022-10-05T18:36:51.149Z,32
2022-10-05T18:39:22.601Z,32
2022-10-05T18:41:57.050Z,29
2022-10-05T18:44:29.303Z,32
2022-10-05T18:47:00.985Z,32
2022-10-05T18:49:31.693Z,39
2022-10-05T18:52:05.741Z,40
2022-10-05T18:54:36.905Z,33
2022-10-05T18:57:09.730Z,36
2022-10-05T18:59:41.124Z,39
2022-10-05T19:02:13.200Z,40
2022-10-05T19:04:44.959Z,36
2022-10-05T19:07:16.264Z,33
2022-10-05T19:09:47.967Z,36
2022-10-05T19:12:19.353Z,32
2022-10-05T19:14:51.363Z,32
2022-10-05T19:17:22.757Z,31
2022-10-05T19:19:54.479Z,32
2022-10-05T19:22:26.075Z,32
2022-10-05T19:25:00.457Z,32
2022-10-05T19:27:32.206Z,32
2022-10-05T19:30:03.817Z,34
2022-10-05T19:32:35.692Z,32
2022-10-05T19:35:08.894Z,32
2022-10-05T19:37:40.573Z,32
2022-10-05T19:40:13.378Z,28
2022-10-05T19:42:44.866Z,32
2022-10-05T19:45:16.610Z,44
2022-10-05T19:47:49.255Z,37
2022-10-05T19:50:22.102Z,33
2022-10-05T19:52:52.821Z,32
2022-10-05T19:55:25.325Z,32
2022-10-05T19:57:57.863Z,32
2022-10-05T20:00:29.733Z,28
2022-10-05T20:03:03.950Z,29
2022-10-05T20:05:37.335Z,28
2022-10-05T20:08:11.093Z,32
2022-10-05T20:10:43.979Z,28
2022-10-05T20:13:19.266Z,28
2022-10-05T20:15:56.863Z,28
2022-10-05T20:18:29.168Z,24
2022-10-05T20:21:02.788Z,28
2022-10-05T20:23:36.346Z,24
2022-10-05T20:26:09.270Z,28
2022-10-05T20:28:40.825Z,28
2022-10-05T20:31:13.667Z,28
2022-10-05T20:33:46.390Z,28
2022-10-05T20:36:17.553Z,29
2022-10-05T20:38:50.811Z,27
2022-10-05T20:41:25.544Z,28
2022-10-05T20:43:58.627Z,30
2022-10-05T20:46:32.772Z,28
2022-10-05T20:49:07.690Z,28
2022-10-05T20:51:39.723Z,28
2022-10-05T20:54:14.140Z,28
2022-10-05T20:56:45.805Z,29
2022-10-05T20:59:17.562Z,28
2022-10-05T21:01:49.049Z,28
2022-10-05T21:04:20.713Z,28
2022-10-05T21:06:53.844Z,29
2022-10-05T21:09:25.507Z,32
2022-10-05T21:11:56.828Z,29
2022-10-05T21:14:31.242Z,32
2022-10-05T21:17:05.742Z,28
2022-10-05T21:19:41.457Z,31
2022-10-05T21:22:14.201Z,32
2022-10-05T21:24:45.977Z,32
2022-10-05T21:27:19.254Z,32
2022-10-05T21:29:55.357Z,29
2022-10-05T21:32:27.950Z,32
2022-10-05T21:34:58.400Z,32
2022-10-05T21:37:29.563Z,29
2022-10-05T21:40:01.598Z,32
2022-10-05T21:42:34.938Z,32
2022-10-05T21:45:07.059Z,30
2022-10-05T21:47:41.579Z,32
2022-10-05T21:50:15.240Z,32
2022-10-05T21:52:49.550Z,29
2022-10-05T21:55:23.061Z,32
2022-10-05T21:57:56.531Z,30
2022-10-05T22:00:28.269Z,32
2022-10-05T22:03:02.046Z,32
2022-10-05T22:05:33.120Z,29
2022-10-05T22:08:05.267Z,30
2022-10-05T22:10:36.205Z,32
2022-10-05T22:13:07.372Z,35
2022-10-05T22:15:38.305Z,32
2022-10-05T22:18:12.308Z,32
2022-10-05T22:20:44.210Z,31
2022-10-05T22:23:15.248Z,28
2022-10-05T22:25:46.077Z,29
2022-10-05T22:28:15.431Z,28
2022-10-05T22:30:46.486Z,28
2022-10-05T22:33:19.872Z,28
2022-10-05T22:35:51.725Z,27
2022-10-05T22:38:23.131Z,29
2022-10-05T22:40:54.075Z,28
2022-10-05T22:43:25.358Z,28
2022-10-05T22:46:01.038Z,28
2022-10-05T22:48:30.904Z,28
2022-10-05T22:51:02.811Z,25
2022-10-05T22:53:33.468Z,28
2022-10-05T22:56:03.827Z,27
2022-10-05T22:58:35.703Z,27
2022-10-05T23:01:07.935Z,27
2022-10-05T23:03:38.451Z,24
2022-10-05T23:06:09.505Z,25
2022-10-05T23:08:40.676Z,28
2022-10-05T23:11:11.934Z,28
2022-10-05T23:13:41.668Z,25
2022-10-05T23:16:12.997Z,24
2022-10-05T23:18:43.628Z,26
2022-10-05T23:21:14.487Z,24
2022-10-05T23:23:45.332Z,28
2022-10-05T23:26:17.178Z,24
2022-10-05T23:28:48.486Z,24
2022-10-05T23:31:21.491Z,24
2022-10-05T23:33:52.784Z,24
2022-10-05T23:36:23.870Z,24
2022-10-05T23:38:54.552Z,24
2022-10-05T23:41:25.805Z,24
2022-10-05T23:43:59.332Z,21
2022-10-05T23:46:31.116Z,24
2022-10-05T23:49:02.754Z,24
2022-10-05T23:51:34.417Z,24
2022-10-05T23:54:05.265Z,24
2022-10-05T23:56:36.007Z,23
2022-10-05T23:59:07.874Z,21
